EJA586 TIST-KFLL
Flight info
| Callsign | EJA586 |
|---|---|
| Flight time | 2h 25m |
| Altitude | 40000 |
| Route | PALCO7 PALCO RTE6 SJU DCT ACONY Y280 SAPPO Y399 ZQA OLAHS3 |
| Aircraft | CL60/M-SADE3FGHIJ3J4J7P2RWXY/HB1D1 |
Departure
| Time | 2026-04-23 12:37 |
|---|---|
| Airport | Cyril E. King Airport (TIST) |
Arrival
| Time | 2026-04-23 15:02 |
|---|---|
| Airport | Fort Lauderdale Hollywood International Airport (KFLL) |
| Time | Latitude | Longitude | Altitude | Speed | Heading |
|---|---|---|---|---|---|
| 2026-04-23 12:05 | 18.33911 | -64.96749 | 30 ft | 0 kts | 6° |
| 2026-04-23 12:30 | 18.33912 | -64.96749 | 30 ft | 0 kts | 6° |
| 2026-04-23 12:30 | 18.33917 | -64.96748 | 30 ft | 2 kts | 11° |
| 2026-04-23 12:30 | 18.33925 | -64.96745 | 30 ft | 0 kts | 19° |
| 2026-04-23 12:30 | 18.33931 | -64.96744 | 30 ft | 0 kts | 24° |
| 2026-04-23 12:31 | 18.33937 | -64.96740 | 30 ft | 1 kts | 25° |
| 2026-04-23 12:31 | 18.33941 | -64.96738 | 30 ft | 2 kts | 27° |
| 2026-04-23 12:31 | 18.33946 | -64.96735 | 30 ft | 2 kts | 33° |
| 2026-04-23 12:31 | 18.33962 | -64.96722 | 30 ft | 0 kts | 48° |
| 2026-04-23 12:32 | 18.33968 | -64.96714 | 30 ft | 5 kts | 57° |
| 2026-04-23 12:32 | 18.33976 | -64.96665 | 30 ft | 6 kts | 103° |
| 2026-04-23 12:32 | 18.33968 | -64.96648 | 31 ft | 0 kts | 121° |
| 2026-04-23 12:32 | 18.33929 | -64.96614 | 31 ft | 13 kts | 156° |
| 2026-04-23 12:33 | 18.33855 | -64.96555 | 30 ft | 11 kts | 122° |
| 2026-04-23 12:33 | 18.33843 | -64.96461 | 31 ft | 13 kts | 91° |
| 2026-04-23 12:33 | 18.33846 | -64.96362 | 35 ft | 12 kts | 97° |
| 2026-04-23 12:33 | 18.33835 | -64.96334 | 36 ft | 5 kts | 126° |
| 2026-04-23 12:34 | 18.33798 | -64.96309 | 37 ft | 6 kts | 170° |
| 2026-04-23 12:34 | 18.33773 | -64.96310 | 37 ft | 4 kts | 193° |
| 2026-04-23 12:34 | 18.33736 | -64.96339 | 36 ft | 0 kts | 239° |
| 2026-04-23 12:34 | 18.33727 | -64.96371 | 34 ft | 7 kts | 269° |
| 2026-04-23 12:35 | 18.33751 | -64.96423 | 32 ft | 10 kts | 309° |
| 2026-04-23 12:35 | 18.33773 | -64.96479 | 30 ft | 0 kts | 272° |
| 2026-04-23 12:36 | 18.33771 | -64.96533 | 30 ft | 35 kts | 266° |
| 2026-04-23 12:36 | 18.33741 | -64.97154 | 30 ft | 112 kts | 267° |
| 2026-04-23 12:37 | 18.33701 | -64.98238 | 68 ft | 156 kts | 269° |
| 2026-04-23 12:37 | 18.33600 | -64.99558 | 512 ft | 165 kts | 260° |
| 2026-04-23 12:37 | 18.33203 | -65.00813 | 1058 ft | 171 kts | 248° |
| 2026-04-23 12:37 | 18.32635 | -65.02226 | 1495 ft | 187 kts | 245° |
| 2026-04-23 12:38 | 18.31946 | -65.03664 | 2072 ft | 193 kts | 241° |
| 2026-04-23 12:38 | 18.31140 | -65.05146 | 2518 ft | 208 kts | 242° |
| 2026-04-23 12:38 | 18.30737 | -65.06876 | 3026 ft | 215 kts | 263° |
| 2026-04-23 12:38 | 18.30521 | -65.08736 | 3593 ft | 220 kts | 264° |
| 2026-04-23 12:39 | 18.30311 | -65.10595 | 4188 ft | 223 kts | 264° |
| 2026-04-23 12:39 | 18.30063 | -65.12545 | 4538 ft | 237 kts | 260° |
| 2026-04-23 12:39 | 18.29674 | -65.14500 | 4994 ft | 244 kts | 258° |
| 2026-04-23 12:39 | 18.29241 | -65.16567 | 5436 ft | 261 kts | 258° |
| 2026-04-23 12:40 | 18.28780 | -65.18767 | 5874 ft | 276 kts | 258° |
| 2026-04-23 12:40 | 18.28608 | -65.21040 | 6464 ft | 281 kts | 280° |
| 2026-04-23 12:40 | 18.29084 | -65.23406 | 7178 ft | 283 kts | 283° |
| 2026-04-23 12:40 | 18.29565 | -65.25690 | 7841 ft | 285 kts | 283° |
| 2026-04-23 12:41 | 18.30046 | -65.27977 | 8483 ft | 287 kts | 283° |
| 2026-04-23 12:41 | 18.30549 | -65.30379 | 9148 ft | 289 kts | 283° |
| 2026-04-23 12:41 | 18.31019 | -65.32630 | 9732 ft | 291 kts | 283° |
| 2026-04-23 12:41 | 18.31510 | -65.34987 | 10281 ft | 294 kts | 283° |
| 2026-04-23 12:42 | 18.32023 | -65.37450 | 10278 ft | 317 kts | 283° |
| 2026-04-23 12:42 | 18.32569 | -65.40079 | 10277 ft | 336 kts | 283° |
| 2026-04-23 12:42 | 18.33129 | -65.42782 | 10386 ft | 347 kts | 283° |
| 2026-04-23 12:42 | 18.33687 | -65.45480 | 10659 ft | 351 kts | 283° |
| 2026-04-23 12:43 | 18.34267 | -65.48290 | 10984 ft | 353 kts | 283° |
| 2026-04-23 12:43 | 18.34838 | -65.51058 | 11314 ft | 354 kts | 282° |
| 2026-04-23 12:43 | 18.35406 | -65.53815 | 11648 ft | 355 kts | 282° |
| 2026-04-23 12:43 | 18.35978 | -65.56591 | 11967 ft | 356 kts | 282° |
| 2026-04-23 12:44 | 18.36536 | -65.59311 | 12257 ft | 357 kts | 282° |
| 2026-04-23 12:44 | 18.37087 | -65.61990 | 12531 ft | 358 kts | 282° |
| 2026-04-23 12:44 | 18.37643 | -65.64701 | 12785 ft | 359 kts | 282° |
| 2026-04-23 12:44 | 18.38205 | -65.67441 | 13050 ft | 360 kts | 282° |
| 2026-04-23 12:45 | 18.38765 | -65.70175 | 13303 ft | 361 kts | 282° |
| 2026-04-23 12:45 | 18.39323 | -65.72905 | 13494 ft | 363 kts | 282° |
| 2026-04-23 12:45 | 18.39903 | -65.75738 | 13748 ft | 363 kts | 282° |
| 2026-04-23 12:45 | 18.40493 | -65.78630 | 13957 ft | 365 kts | 282° |
| 2026-04-23 12:46 | 18.41082 | -65.81516 | 14174 ft | 366 kts | 282° |
| 2026-04-23 12:46 | 18.41673 | -65.84412 | 14419 ft | 366 kts | 282° |
| 2026-04-23 12:46 | 18.42244 | -65.87215 | 14612 ft | 368 kts | 282° |
| 2026-04-23 12:46 | 18.42823 | -65.90061 | 14841 ft | 368 kts | 282° |
| 2026-04-23 12:47 | 18.43388 | -65.92838 | 15034 ft | 369 kts | 282° |
| 2026-04-23 12:47 | 18.43948 | -65.95596 | 15212 ft | 370 kts | 282° |
| 2026-04-23 12:47 | 18.44732 | -65.98224 | 15405 ft | 380 kts | 295° |
| 2026-04-23 12:47 | 18.46322 | -66.00623 | 16165 ft | 387 kts | 312° |
| 2026-04-23 12:48 | 18.48508 | -66.02882 | 17314 ft | 385 kts | 315° |
| 2026-04-23 12:48 | 18.50697 | -66.05091 | 18362 ft | 385 kts | 315° |
| 2026-04-23 12:48 | 18.52864 | -66.07279 | 19327 ft | 384 kts | 314° |
| 2026-04-23 12:48 | 18.55147 | -66.09586 | 20237 ft | 386 kts | 314° |
| 2026-04-23 12:49 | 18.57384 | -66.11848 | 21013 ft | 389 kts | 314° |
| 2026-04-23 12:49 | 18.59642 | -66.14133 | 21729 ft | 392 kts | 314° |
| 2026-04-23 12:49 | 18.61908 | -66.16426 | 22440 ft | 394 kts | 314° |
| 2026-04-23 12:49 | 18.64127 | -66.18673 | 23113 ft | 396 kts | 313° |
| 2026-04-23 12:50 | 18.66397 | -66.20974 | 23696 ft | 401 kts | 313° |
| 2026-04-23 12:50 | 18.68669 | -66.23278 | 24272 ft | 405 kts | 313° |
| 2026-04-23 12:50 | 18.70920 | -66.25561 | 24794 ft | 408 kts | 313° |
| 2026-04-23 12:50 | 18.73233 | -66.27908 | 25321 ft | 412 kts | 313° |
| 2026-04-23 12:51 | 18.75573 | -66.30283 | 25810 ft | 415 kts | 313° |
| 2026-04-23 12:51 | 18.77915 | -66.32661 | 26271 ft | 419 kts | 312° |
| 2026-04-23 12:51 | 18.80352 | -66.35137 | 26773 ft | 421 kts | 312° |
| 2026-04-23 12:51 | 18.82792 | -66.37618 | 27175 ft | 425 kts | 312° |
| 2026-04-23 12:52 | 18.85142 | -66.40006 | 27572 ft | 428 kts | 312° |
| 2026-04-23 12:52 | 18.87589 | -66.42495 | 27977 ft | 430 kts | 312° |
| 2026-04-23 12:52 | 18.90031 | -66.44981 | 28333 ft | 434 kts | 311° |
| 2026-04-23 12:52 | 18.92503 | -66.47528 | 28721 ft | 434 kts | 309° |
| 2026-04-23 12:53 | 18.94791 | -66.50291 | 29065 ft | 434 kts | 306° |
| 2026-04-23 12:53 | 18.96975 | -66.53032 | 29382 ft | 437 kts | 306° |
| 2026-04-23 12:53 | 18.99221 | -66.55850 | 29685 ft | 439 kts | 306° |
| 2026-04-23 12:53 | 19.01413 | -66.58604 | 29981 ft | 440 kts | 306° |
| 2026-04-23 12:54 | 19.03675 | -66.61444 | 30240 ft | 442 kts | 306° |
| 2026-04-23 12:54 | 19.05884 | -66.64220 | 30463 ft | 444 kts | 306° |
| 2026-04-23 12:54 | 19.08148 | -66.67066 | 30693 ft | 446 kts | 305° |
| 2026-04-23 12:54 | 19.10370 | -66.69860 | 30909 ft | 448 kts | 305° |
| 2026-04-23 12:55 | 19.12592 | -66.72656 | 31106 ft | 449 kts | 305° |
| 2026-04-23 12:55 | 19.14835 | -66.75478 | 31331 ft | 450 kts | 305° |
| 2026-04-23 12:55 | 19.17063 | -66.78283 | 31510 ft | 451 kts | 305° |
| 2026-04-23 12:55 | 19.19289 | -66.81087 | 31660 ft | 452 kts | 305° |
| 2026-04-23 12:56 | 19.21521 | -66.83899 | 31813 ft | 453 kts | 305° |
| 2026-04-23 12:56 | 19.23731 | -66.86686 | 31970 ft | 453 kts | 305° |
| 2026-04-23 12:56 | 19.26009 | -66.89558 | 32273 ft | 451 kts | 304° |
| 2026-04-23 12:56 | 19.28228 | -66.92355 | 32663 ft | 446 kts | 304° |
| 2026-04-23 12:57 | 19.30449 | -66.95158 | 32954 ft | 445 kts | 304° |
| 2026-04-23 12:57 | 19.32666 | -66.97957 | 33376 ft | 441 kts | 304° |
| 2026-04-23 12:57 | 19.34905 | -67.00783 | 33935 ft | 435 kts | 304° |
| 2026-04-23 12:57 | 19.37146 | -67.03614 | 34465 ft | 430 kts | 304° |
| 2026-04-23 12:58 | 19.39360 | -67.06413 | 35009 ft | 424 kts | 304° |
| 2026-04-23 12:58 | 19.41569 | -67.09206 | 35561 ft | 419 kts | 304° |
| 2026-04-23 12:58 | 19.43729 | -67.11941 | 36036 ft | 414 kts | 304° |
| 2026-04-23 12:58 | 19.45831 | -67.14603 | 36474 ft | 411 kts | 303° |
| 2026-04-23 12:59 | 19.47979 | -67.17326 | 36874 ft | 408 kts | 303° |
| 2026-04-23 12:59 | 19.50076 | -67.19983 | 37306 ft | 404 kts | 303° |
| 2026-04-23 12:59 | 19.52143 | -67.22604 | 37784 ft | 399 kts | 303° |
| 2026-04-23 12:59 | 19.54195 | -67.25208 | 38158 ft | 396 kts | 303° |
| 2026-04-23 13:00 | 19.56234 | -67.27797 | 38546 ft | 392 kts | 303° |
| 2026-04-23 13:00 | 19.58265 | -67.30376 | 38970 ft | 387 kts | 303° |
| 2026-04-23 13:00 | 19.60273 | -67.32927 | 39278 ft | 386 kts | 303° |
| 2026-04-23 13:00 | 19.62276 | -67.35475 | 39472 ft | 386 kts | 303° |
| 2026-04-23 13:01 | 19.64297 | -67.38048 | 39652 ft | 386 kts | 303° |
| 2026-04-23 13:01 | 19.66267 | -67.40555 | 39813 ft | 386 kts | 303° |
| 2026-04-23 13:01 | 19.68286 | -67.43125 | 39995 ft | 386 kts | 303° |
| 2026-04-23 13:01 | 19.70298 | -67.45689 | 40022 ft | 389 kts | 303° |
| 2026-04-23 13:02 | 19.74310 | -67.50806 | 40028 ft | 394 kts | 303° |
| 2026-04-23 13:02 | 19.78395 | -67.56018 | 40019 ft | 399 kts | 303° |
| 2026-04-23 13:03 | 19.82586 | -67.61369 | 40008 ft | 404 kts | 303° |
| 2026-04-23 13:03 | 19.86751 | -67.66691 | 40008 ft | 408 kts | 303° |
| 2026-04-23 13:04 | 19.91020 | -67.72149 | 40010 ft | 412 kts | 303° |
| 2026-04-23 13:04 | 19.95144 | -67.77428 | 40010 ft | 415 kts | 303° |
| 2026-04-23 13:05 | 19.99290 | -67.82739 | 40008 ft | 418 kts | 303° |
| 2026-04-23 13:05 | 20.03511 | -67.88150 | 40009 ft | 420 kts | 303° |
| 2026-04-23 13:06 | 20.09952 | -67.96416 | 40025 ft | 422 kts | 303° |
| 2026-04-23 13:07 | 20.14167 | -68.01833 | 40030 ft | 423 kts | 303° |
| 2026-04-23 13:07 | 20.18530 | -68.07446 | 40030 ft | 425 kts | 303° |
| 2026-04-23 13:08 | 20.22954 | -68.13143 | 40031 ft | 427 kts | 303° |
| 2026-04-23 13:08 | 20.27350 | -68.18808 | 40031 ft | 428 kts | 303° |
| 2026-04-23 13:09 | 20.31782 | -68.24526 | 40027 ft | 430 kts | 303° |
| 2026-04-23 13:09 | 20.36199 | -68.30229 | 40020 ft | 431 kts | 303° |
| 2026-04-23 13:10 | 20.40651 | -68.35983 | 40028 ft | 430 kts | 303° |
| 2026-04-23 13:10 | 20.44832 | -68.41887 | 40028 ft | 422 kts | 295° |
| 2026-04-23 13:11 | 20.48315 | -68.48206 | 40025 ft | 418 kts | 295° |
| 2026-04-23 13:11 | 20.51737 | -68.54426 | 40024 ft | 414 kts | 295° |
| 2026-04-23 13:12 | 20.55145 | -68.60622 | 40020 ft | 411 kts | 295° |
| 2026-04-23 13:12 | 20.58491 | -68.66709 | 40025 ft | 407 kts | 294° |
| 2026-04-23 13:13 | 20.61851 | -68.72830 | 40029 ft | 406 kts | 294° |
| 2026-04-23 13:13 | 20.65204 | -68.78942 | 40032 ft | 406 kts | 294° |
| 2026-04-23 13:14 | 20.68535 | -68.85020 | 40028 ft | 406 kts | 294° |
| 2026-04-23 13:14 | 20.71892 | -68.91152 | 40024 ft | 406 kts | 294° |
| 2026-04-23 13:15 | 20.75241 | -68.97272 | 40033 ft | 406 kts | 294° |
| 2026-04-23 13:15 | 20.78551 | -69.03329 | 40043 ft | 405 kts | 294° |
| 2026-04-23 13:16 | 20.81901 | -69.09466 | 40042 ft | 405 kts | 294° |
| 2026-04-23 13:16 | 20.85208 | -69.15530 | 40034 ft | 405 kts | 294° |
| 2026-04-23 13:17 | 20.88535 | -69.21637 | 40028 ft | 404 kts | 294° |
| 2026-04-23 13:17 | 20.91845 | -69.27719 | 40030 ft | 404 kts | 294° |
| 2026-04-23 13:18 | 20.95169 | -69.33833 | 40029 ft | 403 kts | 294° |
| 2026-04-23 13:18 | 20.98458 | -69.39888 | 40034 ft | 402 kts | 294° |
| 2026-04-23 13:19 | 21.01767 | -69.45988 | 40030 ft | 402 kts | 294° |
| 2026-04-23 13:19 | 21.05045 | -69.52038 | 40030 ft | 401 kts | 294° |
| 2026-04-23 13:20 | 21.08294 | -69.58039 | 40039 ft | 400 kts | 294° |
| 2026-04-23 13:20 | 21.11554 | -69.64069 | 40050 ft | 399 kts | 294° |
| 2026-04-23 13:21 | 21.14796 | -69.70073 | 40051 ft | 399 kts | 294° |
| 2026-04-23 13:21 | 21.18053 | -69.76111 | 40051 ft | 400 kts | 294° |
| 2026-04-23 13:22 | 21.21302 | -69.82140 | 40040 ft | 401 kts | 294° |
| 2026-04-23 13:22 | 21.24546 | -69.88165 | 40041 ft | 401 kts | 294° |
| 2026-04-23 13:23 | 21.27820 | -69.94254 | 40041 ft | 401 kts | 294° |
| 2026-04-23 13:23 | 21.31051 | -70.00270 | 40041 ft | 400 kts | 294° |
| 2026-04-23 13:24 | 21.34285 | -70.06297 | 40041 ft | 400 kts | 294° |
| 2026-04-23 13:24 | 21.37545 | -70.12380 | 40045 ft | 400 kts | 294° |
| 2026-04-23 13:25 | 21.40779 | -70.18418 | 40048 ft | 399 kts | 294° |
| 2026-04-23 13:25 | 21.44017 | -70.24472 | 40050 ft | 399 kts | 294° |
| 2026-04-23 13:26 | 21.47236 | -70.30498 | 40050 ft | 399 kts | 294° |
| 2026-04-23 13:26 | 21.50458 | -70.36536 | 40050 ft | 398 kts | 294° |
| 2026-04-23 13:27 | 21.53673 | -70.42567 | 40059 ft | 398 kts | 294° |
| 2026-04-23 13:27 | 21.56873 | -70.48576 | 40058 ft | 397 kts | 294° |
| 2026-04-23 13:28 | 21.60071 | -70.54591 | 40055 ft | 397 kts | 294° |
| 2026-04-23 13:28 | 21.63265 | -70.60603 | 40053 ft | 397 kts | 294° |
| 2026-04-23 13:29 | 21.66452 | -70.66607 | 40051 ft | 397 kts | 293° |
| 2026-04-23 13:29 | 21.69635 | -70.72613 | 40059 ft | 398 kts | 293° |
| 2026-04-23 13:30 | 21.72835 | -70.78657 | 40059 ft | 399 kts | 293° |
| 2026-04-23 13:30 | 21.76045 | -70.84726 | 40065 ft | 400 kts | 293° |
| 2026-04-23 13:31 | 21.79251 | -70.90795 | 40061 ft | 400 kts | 293° |
| 2026-04-23 13:31 | 21.82462 | -70.96880 | 40053 ft | 401 kts | 293° |
| 2026-04-23 13:32 | 21.85695 | -71.03014 | 40060 ft | 402 kts | 293° |
| 2026-04-23 13:32 | 21.88925 | -71.09148 | 40069 ft | 403 kts | 293° |
| 2026-04-23 13:33 | 21.92140 | -71.15263 | 40070 ft | 403 kts | 294° |
| 2026-04-23 13:33 | 21.95382 | -71.21435 | 40068 ft | 404 kts | 293° |
| 2026-04-23 13:34 | 21.98642 | -71.27648 | 40069 ft | 405 kts | 293° |
| 2026-04-23 13:34 | 22.01867 | -71.33801 | 40072 ft | 405 kts | 293° |
| 2026-04-23 13:35 | 22.05113 | -71.40004 | 40072 ft | 406 kts | 293° |
| 2026-04-23 13:35 | 22.08355 | -71.46204 | 40072 ft | 406 kts | 293° |
| 2026-04-23 13:36 | 22.11604 | -71.52425 | 40073 ft | 407 kts | 293° |
| 2026-04-23 13:36 | 22.14851 | -71.58652 | 40075 ft | 407 kts | 293° |
| 2026-04-23 13:37 | 22.18099 | -71.64887 | 40074 ft | 407 kts | 293° |
| 2026-04-23 13:37 | 22.21338 | -71.71114 | 40073 ft | 408 kts | 292° |
| 2026-04-23 13:38 | 22.24574 | -71.77340 | 40077 ft | 410 kts | 293° |
| 2026-04-23 13:38 | 22.27839 | -71.83630 | 40077 ft | 411 kts | 292° |
| 2026-04-23 13:39 | 22.31078 | -71.89877 | 40078 ft | 411 kts | 293° |
| 2026-04-23 13:39 | 22.34276 | -71.96053 | 40075 ft | 411 kts | 292° |
| 2026-04-23 13:40 | 22.37448 | -72.02183 | 40084 ft | 411 kts | 292° |
| 2026-04-23 13:40 | 22.40595 | -72.08276 | 40080 ft | 410 kts | 293° |
| 2026-04-23 13:41 | 22.43749 | -72.14387 | 40080 ft | 410 kts | 292° |
| 2026-04-23 13:41 | 22.46886 | -72.20473 | 40080 ft | 409 kts | 292° |
| 2026-04-23 13:42 | 22.49987 | -72.26498 | 40079 ft | 409 kts | 292° |
| 2026-04-23 13:42 | 22.53111 | -72.32571 | 40081 ft | 408 kts | 292° |
| 2026-04-23 13:43 | 22.56225 | -72.38635 | 40085 ft | 407 kts | 292° |
| 2026-04-23 13:43 | 22.59306 | -72.44641 | 40083 ft | 407 kts | 292° |
| 2026-04-23 13:44 | 22.62379 | -72.50637 | 40084 ft | 406 kts | 292° |
| 2026-04-23 13:44 | 22.65458 | -72.56651 | 40085 ft | 404 kts | 292° |
| 2026-04-23 13:45 | 22.68024 | -72.61670 | 40084 ft | 403 kts | 292° |
| 2026-04-23 13:45 | 22.71608 | -72.68690 | 40085 ft | 403 kts | 292° |
| 2026-04-23 13:46 | 22.74666 | -72.74686 | 40086 ft | 403 kts | 292° |
| 2026-04-23 13:46 | 22.77715 | -72.80684 | 40089 ft | 404 kts | 292° |
| 2026-04-23 13:47 | 22.80785 | -72.86729 | 40103 ft | 404 kts | 292° |
| 2026-04-23 13:47 | 22.83865 | -72.92803 | 40102 ft | 404 kts | 292° |
| 2026-04-23 13:48 | 22.86962 | -72.98919 | 40093 ft | 404 kts | 291° |
| 2026-04-23 13:48 | 22.90080 | -73.05081 | 40087 ft | 405 kts | 291° |
| 2026-04-23 13:49 | 22.93234 | -73.11323 | 40092 ft | 405 kts | 292° |
| 2026-04-23 13:49 | 22.96405 | -73.17606 | 40091 ft | 405 kts | 291° |
| 2026-04-23 13:50 | 22.99576 | -73.23895 | 40093 ft | 404 kts | 292° |
| 2026-04-23 13:50 | 23.02727 | -73.30156 | 40089 ft | 404 kts | 291° |
| 2026-04-23 13:51 | 23.05878 | -73.36422 | 40094 ft | 404 kts | 291° |
| 2026-04-23 13:51 | 23.09012 | -73.42664 | 40094 ft | 403 kts | 291° |
| 2026-04-23 13:52 | 23.12158 | -73.48936 | 40094 ft | 402 kts | 291° |
| 2026-04-23 13:52 | 23.15270 | -73.55148 | 40094 ft | 401 kts | 291° |
| 2026-04-23 13:53 | 23.18397 | -73.61398 | 40096 ft | 400 kts | 291° |
| 2026-04-23 13:53 | 23.21468 | -73.67545 | 40097 ft | 399 kts | 291° |
| 2026-04-23 13:54 | 23.24553 | -73.73727 | 40101 ft | 399 kts | 291° |
| 2026-04-23 13:54 | 23.27597 | -73.79837 | 40098 ft | 399 kts | 291° |
| 2026-04-23 13:55 | 23.30636 | -73.85941 | 40096 ft | 399 kts | 291° |
| 2026-04-23 13:55 | 23.33622 | -73.91948 | 40098 ft | 399 kts | 291° |
| 2026-04-23 13:56 | 23.36589 | -73.97923 | 40100 ft | 399 kts | 291° |
| 2026-04-23 13:56 | 23.39574 | -74.03941 | 40097 ft | 399 kts | 291° |
| 2026-04-23 13:57 | 23.42515 | -74.09877 | 40104 ft | 399 kts | 291° |
| 2026-04-23 13:57 | 23.45418 | -74.15744 | 40107 ft | 399 kts | 291° |
| 2026-04-23 13:58 | 23.48271 | -74.21517 | 40105 ft | 398 kts | 291° |
| 2026-04-23 13:58 | 23.51139 | -74.27326 | 40103 ft | 398 kts | 291° |
| 2026-04-23 13:59 | 23.54001 | -74.33130 | 40100 ft | 397 kts | 291° |
| 2026-04-23 13:59 | 23.56842 | -74.38901 | 40104 ft | 397 kts | 291° |
| 2026-04-23 14:00 | 23.59216 | -74.43727 | 40105 ft | 396 kts | 291° |
| 2026-04-23 14:00 | 23.62548 | -74.50509 | 40106 ft | 395 kts | 291° |
| 2026-04-23 14:01 | 23.65377 | -74.56276 | 40105 ft | 394 kts | 291° |
| 2026-04-23 14:01 | 23.68189 | -74.62012 | 40108 ft | 393 kts | 291° |
| 2026-04-23 14:02 | 23.70947 | -74.67647 | 40105 ft | 392 kts | 291° |
| 2026-04-23 14:02 | 23.73719 | -74.73317 | 40105 ft | 393 kts | 290° |
| 2026-04-23 14:03 | 23.76503 | -74.79018 | 40107 ft | 393 kts | 291° |
| 2026-04-23 14:03 | 23.79274 | -74.84699 | 40108 ft | 394 kts | 290° |
| 2026-04-23 14:04 | 23.82074 | -74.90445 | 40106 ft | 394 kts | 290° |
| 2026-04-23 14:04 | 23.84891 | -74.96233 | 40109 ft | 395 kts | 290° |
| 2026-04-23 14:05 | 23.87694 | -75.02001 | 40109 ft | 395 kts | 290° |
| 2026-04-23 14:05 | 23.90492 | -75.07763 | 40109 ft | 395 kts | 290° |
| 2026-04-23 14:06 | 23.93322 | -75.13600 | 40113 ft | 395 kts | 290° |
| 2026-04-23 14:06 | 23.96144 | -75.19428 | 40111 ft | 395 kts | 290° |
| 2026-04-23 14:07 | 23.99039 | -75.25414 | 40113 ft | 395 kts | 290° |
| 2026-04-23 14:07 | 24.03466 | -75.34579 | 40121 ft | 395 kts | 290° |
| 2026-04-23 14:08 | 24.06326 | -75.40511 | 40121 ft | 394 kts | 290° |
| 2026-04-23 14:08 | 24.09189 | -75.46456 | 40123 ft | 394 kts | 291° |
| 2026-04-23 14:09 | 24.12023 | -75.52347 | 40124 ft | 393 kts | 290° |
| 2026-04-23 14:09 | 24.14888 | -75.58310 | 40122 ft | 392 kts | 290° |
| 2026-04-23 14:10 | 24.17751 | -75.64278 | 40117 ft | 390 kts | 290° |
| 2026-04-23 14:10 | 24.20556 | -75.70136 | 40117 ft | 391 kts | 290° |
| 2026-04-23 14:11 | 24.23381 | -75.76039 | 40116 ft | 391 kts | 290° |
| 2026-04-23 14:11 | 24.26223 | -75.81988 | 40119 ft | 391 kts | 290° |
| 2026-04-23 14:12 | 24.29054 | -75.87920 | 40116 ft | 392 kts | 290° |
| 2026-04-23 14:12 | 24.31850 | -75.93786 | 40119 ft | 392 kts | 290° |
| 2026-04-23 14:13 | 24.34677 | -75.99725 | 40124 ft | 392 kts | 290° |
| 2026-04-23 14:13 | 24.37530 | -76.05723 | 40130 ft | 392 kts | 290° |
| 2026-04-23 14:14 | 24.40382 | -76.11729 | 40127 ft | 392 kts | 290° |
| 2026-04-23 14:14 | 24.43218 | -76.17712 | 40132 ft | 392 kts | 290° |
| 2026-04-23 14:15 | 24.46019 | -76.23626 | 40129 ft | 392 kts | 290° |
| 2026-04-23 14:15 | 24.48793 | -76.29491 | 40134 ft | 391 kts | 290° |
| 2026-04-23 14:16 | 24.51556 | -76.35339 | 40133 ft | 391 kts | 290° |
| 2026-04-23 14:16 | 24.54228 | -76.41001 | 40133 ft | 390 kts | 290° |
| 2026-04-23 14:17 | 24.56880 | -76.46630 | 40130 ft | 390 kts | 290° |
| 2026-04-23 14:17 | 24.59436 | -76.52060 | 40128 ft | 389 kts | 290° |
| 2026-04-23 14:18 | 24.61953 | -76.57415 | 40126 ft | 388 kts | 290° |
| 2026-04-23 14:18 | 24.64482 | -76.62800 | 40127 ft | 387 kts | 290° |
| 2026-04-23 14:19 | 24.66983 | -76.68133 | 40126 ft | 388 kts | 290° |
| 2026-04-23 14:19 | 24.69444 | -76.73387 | 40127 ft | 388 kts | 289° |
| 2026-04-23 14:20 | 24.71931 | -76.78703 | 40127 ft | 389 kts | 290° |
| 2026-04-23 14:20 | 24.74415 | -76.84018 | 40128 ft | 390 kts | 290° |
| 2026-04-23 14:21 | 24.76899 | -76.89339 | 40130 ft | 390 kts | 290° |
| 2026-04-23 14:21 | 24.79377 | -76.94654 | 40130 ft | 391 kts | 290° |
| 2026-04-23 14:22 | 24.81975 | -77.00232 | 40130 ft | 392 kts | 290° |
| 2026-04-23 14:22 | 24.84700 | -77.06089 | 40130 ft | 392 kts | 290° |
| 2026-04-23 14:23 | 24.87418 | -77.11939 | 40130 ft | 392 kts | 290° |
| 2026-04-23 14:23 | 24.90112 | -77.17743 | 40134 ft | 393 kts | 290° |
| 2026-04-23 14:24 | 24.92844 | -77.23642 | 40133 ft | 393 kts | 290° |
| 2026-04-23 14:24 | 24.95639 | -77.29679 | 40138 ft | 393 kts | 290° |
| 2026-04-23 14:25 | 24.98369 | -77.35586 | 40139 ft | 394 kts | 290° |
| 2026-04-23 14:25 | 25.01087 | -77.41476 | 40141 ft | 394 kts | 290° |
| 2026-04-23 14:26 | 25.03808 | -77.47377 | 40141 ft | 394 kts | 290° |
| 2026-04-23 14:26 | 25.06464 | -77.53151 | 40143 ft | 394 kts | 290° |
| 2026-04-23 14:27 | 25.08789 | -77.58876 | 40145 ft | 390 kts | 287° |
| 2026-04-23 14:27 | 25.10893 | -77.64529 | 40141 ft | 390 kts | 287° |
| 2026-04-23 14:28 | 25.12994 | -77.70171 | 40130 ft | 391 kts | 286° |
| 2026-04-23 14:28 | 25.15100 | -77.75832 | 40131 ft | 392 kts | 287° |
| 2026-04-23 14:29 | 25.17219 | -77.81540 | 39667 ft | 403 kts | 286° |
| 2026-04-23 14:29 | 25.18282 | -77.84404 | 39364 ft | 408 kts | 287° |
| 2026-04-23 14:29 | 25.19366 | -77.87324 | 39104 ft | 409 kts | 287° |
| 2026-04-23 14:30 | 25.20457 | -77.90260 | 38826 ft | 410 kts | 287° |
| 2026-04-23 14:30 | 25.21544 | -77.93192 | 38552 ft | 411 kts | 287° |
| 2026-04-23 14:30 | 25.22626 | -77.96107 | 38289 ft | 410 kts | 287° |
| 2026-04-23 14:30 | 25.23719 | -77.99052 | 38002 ft | 409 kts | 287° |
| 2026-04-23 14:31 | 25.24797 | -78.01961 | 37742 ft | 408 kts | 287° |
| 2026-04-23 14:31 | 25.25859 | -78.04828 | 37472 ft | 407 kts | 287° |
| 2026-04-23 14:31 | 25.26934 | -78.07732 | 37200 ft | 405 kts | 287° |
| 2026-04-23 14:31 | 25.27991 | -78.10590 | 36923 ft | 405 kts | 287° |
| 2026-04-23 14:32 | 25.29052 | -78.13463 | 36653 ft | 404 kts | 288° |
| 2026-04-23 14:32 | 25.30119 | -78.16353 | 36377 ft | 403 kts | 287° |
| 2026-04-23 14:32 | 25.31172 | -78.19207 | 36104 ft | 403 kts | 288° |
| 2026-04-23 14:32 | 25.32221 | -78.22053 | 35835 ft | 403 kts | 288° |
| 2026-04-23 14:33 | 25.33288 | -78.24948 | 35563 ft | 403 kts | 288° |
| 2026-04-23 14:33 | 25.34342 | -78.27811 | 35291 ft | 403 kts | 288° |
| 2026-04-23 14:33 | 25.35391 | -78.30662 | 35022 ft | 403 kts | 288° |
| 2026-04-23 14:33 | 25.35459 | -78.30847 | 35004 ft | 403 kts | 288° |
| 2026-04-23 14:34 | 25.36614 | -78.33989 | 34703 ft | 404 kts | 288° |
| 2026-04-23 14:35 | 25.37662 | -78.36841 | 34438 ft | 404 kts | 288° |
| 2026-04-23 14:35 | 25.38724 | -78.39734 | 34166 ft | 405 kts | 288° |
| 2026-04-23 14:35 | 25.39772 | -78.42592 | 33897 ft | 405 kts | 288° |
| 2026-04-23 14:35 | 25.40842 | -78.45509 | 33620 ft | 406 kts | 288° |
| 2026-04-23 14:36 | 25.41925 | -78.48364 | 33336 ft | 408 kts | 290° |
| 2026-04-23 14:36 | 25.43039 | -78.51258 | 32956 ft | 411 kts | 290° |
| 2026-04-23 14:36 | 25.44166 | -78.54191 | 32558 ft | 414 kts | 290° |
| 2026-04-23 14:36 | 25.45289 | -78.57116 | 32162 ft | 417 kts | 290° |
| 2026-04-23 14:37 | 25.46413 | -78.60043 | 31771 ft | 419 kts | 290° |
| 2026-04-23 14:37 | 25.47565 | -78.63045 | 31378 ft | 421 kts | 290° |
| 2026-04-23 14:37 | 25.48706 | -78.66022 | 31063 ft | 421 kts | 290° |
| 2026-04-23 14:37 | 25.49843 | -78.68992 | 30765 ft | 422 kts | 290° |
| 2026-04-23 14:38 | 25.50991 | -78.71991 | 30390 ft | 424 kts | 290° |
| 2026-04-23 14:38 | 25.52139 | -78.74994 | 29991 ft | 426 kts | 290° |
| 2026-04-23 14:38 | 25.53297 | -78.78024 | 29591 ft | 428 kts | 291° |
| 2026-04-23 14:38 | 25.54452 | -78.81049 | 29198 ft | 429 kts | 291° |
| 2026-04-23 14:39 | 25.55615 | -78.84098 | 28797 ft | 430 kts | 291° |
| 2026-04-23 14:39 | 25.56773 | -78.87134 | 28405 ft | 430 kts | 291° |
| 2026-04-23 14:39 | 25.57925 | -78.90157 | 28006 ft | 428 kts | 291° |
| 2026-04-23 14:39 | 25.59089 | -78.93214 | 27608 ft | 427 kts | 291° |
| 2026-04-23 14:40 | 25.60237 | -78.96233 | 27213 ft | 427 kts | 291° |
| 2026-04-23 14:40 | 25.61397 | -78.99284 | 26814 ft | 427 kts | 291° |
| 2026-04-23 14:40 | 25.62548 | -79.02313 | 26415 ft | 427 kts | 291° |
| 2026-04-23 14:40 | 25.63693 | -79.05341 | 26021 ft | 423 kts | 291° |
| 2026-04-23 14:41 | 25.64812 | -79.08317 | 25625 ft | 419 kts | 291° |
| 2026-04-23 14:41 | 25.65929 | -79.11289 | 25226 ft | 415 kts | 291° |
| 2026-04-23 14:41 | 25.67022 | -79.14203 | 24833 ft | 412 kts | 291° |
| 2026-04-23 14:41 | 25.68119 | -79.17127 | 24436 ft | 410 kts | 291° |
| 2026-04-23 14:42 | 25.69213 | -79.20046 | 24034 ft | 408 kts | 291° |
| 2026-04-23 14:42 | 25.70292 | -79.22927 | 23635 ft | 407 kts | 291° |
| 2026-04-23 14:42 | 25.71381 | -79.25838 | 23233 ft | 405 kts | 291° |
| 2026-04-23 14:42 | 25.72455 | -79.28709 | 22840 ft | 404 kts | 291° |
| 2026-04-23 14:43 | 25.73517 | -79.31576 | 22447 ft | 404 kts | 291° |
| 2026-04-23 14:43 | 25.74572 | -79.34450 | 22046 ft | 403 kts | 291° |
| 2026-04-23 14:43 | 25.75624 | -79.37317 | 21650 ft | 403 kts | 291° |
| 2026-04-23 14:43 | 25.76674 | -79.40183 | 21257 ft | 403 kts | 291° |
| 2026-04-23 14:44 | 25.77725 | -79.43052 | 20860 ft | 403 kts | 291° |
| 2026-04-23 14:44 | 25.78775 | -79.45919 | 20464 ft | 399 kts | 291° |
| 2026-04-23 14:44 | 25.79823 | -79.48783 | 20056 ft | 394 kts | 291° |
| 2026-04-23 14:44 | 25.80838 | -79.51557 | 19657 ft | 389 kts | 291° |
| 2026-04-23 14:45 | 25.81853 | -79.54336 | 19256 ft | 385 kts | 291° |
| 2026-04-23 14:45 | 25.82848 | -79.57063 | 18860 ft | 382 kts | 291° |
| 2026-04-23 14:45 | 25.83845 | -79.59791 | 18459 ft | 379 kts | 291° |
| 2026-04-23 14:45 | 25.84852 | -79.62479 | 18061 ft | 376 kts | 291° |
| 2026-04-23 14:46 | 25.85902 | -79.65126 | 17665 ft | 375 kts | 294° |
| 2026-04-23 14:46 | 25.87011 | -79.67711 | 17269 ft | 373 kts | 294° |
| 2026-04-23 14:46 | 25.88123 | -79.70301 | 16871 ft | 372 kts | 294° |
| 2026-04-23 14:46 | 25.89253 | -79.72935 | 16464 ft | 371 kts | 294° |
| 2026-04-23 14:47 | 25.90377 | -79.75569 | 16060 ft | 369 kts | 294° |
| 2026-04-23 14:47 | 25.91459 | -79.78109 | 15662 ft | 360 kts | 294° |
| 2026-04-23 14:47 | 25.92515 | -79.80589 | 15266 ft | 352 kts | 294° |
| 2026-04-23 14:47 | 25.93550 | -79.83020 | 14866 ft | 345 kts | 295° |
| 2026-04-23 14:48 | 25.94564 | -79.85404 | 14486 ft | 339 kts | 295° |
| 2026-04-23 14:48 | 25.95559 | -79.87744 | 14110 ft | 335 kts | 295° |
| 2026-04-23 14:48 | 25.96541 | -79.90055 | 13668 ft | 326 kts | 295° |
| 2026-04-23 14:48 | 25.97496 | -79.92306 | 13303 ft | 317 kts | 295° |
| 2026-04-23 14:49 | 25.98432 | -79.94496 | 12907 ft | 310 kts | 297° |
| 2026-04-23 14:49 | 25.99661 | -79.96410 | 12520 ft | 305 kts | 311° |
| 2026-04-23 14:49 | 26.01078 | -79.98151 | 12107 ft | 300 kts | 311° |
| 2026-04-23 14:49 | 26.02470 | -79.99867 | 11715 ft | 297 kts | 311° |
| 2026-04-23 14:50 | 26.03842 | -80.01559 | 11322 ft | 294 kts | 311° |
| 2026-04-23 14:50 | 26.05194 | -80.03229 | 10926 ft | 292 kts | 311° |
| 2026-04-23 14:50 | 26.06565 | -80.04923 | 10517 ft | 290 kts | 312° |
| 2026-04-23 14:50 | 26.07913 | -80.06587 | 10113 ft | 287 kts | 312° |
| 2026-04-23 14:51 | 26.09255 | -80.08247 | 9643 ft | 285 kts | 312° |
| 2026-04-23 14:51 | 26.10670 | -80.09997 | 9181 ft | 283 kts | 312° |
| 2026-04-23 14:51 | 26.12085 | -80.11749 | 8726 ft | 280 kts | 313° |
| 2026-04-23 14:51 | 26.13432 | -80.13416 | 8291 ft | 278 kts | 313° |
| 2026-04-23 14:52 | 26.14593 | -80.15248 | 7847 ft | 277 kts | 295° |
| 2026-04-23 14:52 | 26.15021 | -80.17339 | 7424 ft | 277 kts | 273° |
| 2026-04-23 14:52 | 26.15037 | -80.19564 | 6986 ft | 276 kts | 270° |
| 2026-04-23 14:52 | 26.15025 | -80.21868 | 6535 ft | 276 kts | 270° |
| 2026-04-23 14:53 | 26.15019 | -80.24139 | 6077 ft | 275 kts | 270° |
| 2026-04-23 14:53 | 26.15013 | -80.26472 | 5609 ft | 275 kts | 270° |
| 2026-04-23 14:53 | 26.15006 | -80.28783 | 5121 ft | 272 kts | 270° |
| 2026-04-23 14:53 | 26.15003 | -80.31021 | 4698 ft | 269 kts | 270° |
| 2026-04-23 14:54 | 26.14999 | -80.33215 | 4249 ft | 269 kts | 270° |
| 2026-04-23 14:54 | 26.14997 | -80.35458 | 4024 ft | 258 kts | 270° |
| 2026-04-23 14:54 | 26.14996 | -80.37614 | 4011 ft | 251 kts | 270° |
| 2026-04-23 14:54 | 26.14992 | -80.39660 | 4006 ft | 241 kts | 270° |
| 2026-04-23 14:55 | 26.14993 | -80.41633 | 3998 ft | 231 kts | 270° |
| 2026-04-23 14:55 | 26.14848 | -80.43559 | 3884 ft | 224 kts | 248° |
| 2026-04-23 14:55 | 26.13784 | -80.44952 | 3906 ft | 203 kts | 201° |
| 2026-04-23 14:55 | 26.12300 | -80.45304 | 3917 ft | 188 kts | 181° |
| 2026-04-23 14:56 | 26.10952 | -80.45001 | 3890 ft | 175 kts | 141° |
| 2026-04-23 14:56 | 26.09925 | -80.44009 | 3916 ft | 183 kts | 134° |
| 2026-04-23 14:56 | 26.08877 | -80.42858 | 3898 ft | 194 kts | 133° |
| 2026-04-23 14:56 | 26.07807 | -80.41664 | 3893 ft | 203 kts | 130° |
| 2026-04-23 14:57 | 26.07069 | -80.40263 | 3891 ft | 208 kts | 108° |
| 2026-04-23 14:57 | 26.06787 | -80.38663 | 3831 ft | 206 kts | 96° |
| 2026-04-23 14:57 | 26.06714 | -80.36982 | 3564 ft | 204 kts | 91° |
| 2026-04-23 14:57 | 26.06690 | -80.35218 | 3285 ft | 203 kts | 91° |
| 2026-04-23 14:58 | 26.06678 | -80.33499 | 3010 ft | 195 kts | 91° |
| 2026-04-23 14:58 | 26.06670 | -80.31963 | 2757 ft | 186 kts | 91° |
| 2026-04-23 14:58 | 26.06664 | -80.30540 | 2517 ft | 178 kts | 91° |
| 2026-04-23 14:58 | 26.06657 | -80.29164 | 2290 ft | 171 kts | 91° |
| 2026-04-23 14:59 | 26.06650 | -80.27818 | 2054 ft | 158 kts | 91° |
| 2026-04-23 14:59 | 26.06645 | -80.26641 | 1872 ft | 139 kts | 91° |
| 2026-04-23 14:59 | 26.06639 | -80.25560 | 1692 ft | 132 kts | 91° |
| 2026-04-23 14:59 | 26.06634 | -80.24528 | 1515 ft | 129 kts | 91° |
| 2026-04-23 15:00 | 26.06627 | -80.23501 | 1343 ft | 135 kts | 91° |
| 2026-04-23 15:00 | 26.06621 | -80.22441 | 1170 ft | 139 kts | 91° |
| 2026-04-23 15:00 | 26.06615 | -80.21348 | 985 ft | 142 kts | 91° |
| 2026-04-23 15:00 | 26.06611 | -80.20298 | 826 ft | 129 kts | 91° |
| 2026-04-23 15:01 | 26.06607 | -80.19305 | 636 ft | 126 kts | 91° |
| 2026-04-23 15:01 | 26.06601 | -80.18344 | 474 ft | 124 kts | 90° |
| 2026-04-23 15:01 | 26.06596 | -80.17376 | 319 ft | 124 kts | 90° |
| 2026-04-23 15:01 | 26.06596 | -80.16409 | 168 ft | 124 kts | 89° |
| 2026-04-23 15:02 | 26.06597 | -80.15758 | 54 ft | 125 kts | 90° |
| 2026-04-23 15:02 | 26.06583 | -80.14661 | 11 ft | 51 kts | 90° |
| 2026-04-23 15:02 | 26.06583 | -80.14576 | 11 ft | 3 kts | 90° |
| 2026-04-23 15:02 | 26.06582 | -80.14513 | 11 ft | 12 kts | 92° |
| 2026-04-23 15:03 | 26.06580 | -80.14391 | 11 ft | 18 kts | 91° |
| 2026-04-23 15:03 | 26.06597 | -80.14249 | 11 ft | 15 kts | 60° |
| 2026-04-23 15:03 | 26.06648 | -80.14211 | 11 ft | 10 kts | 3° |
| 2026-04-23 15:03 | 26.06684 | -80.14223 | 11 ft | 2 kts | 326° |
| 2026-04-23 15:04 | 26.06691 | -80.14229 | 11 ft | 0 kts | 318° |
| 2026-04-23 15:04 | 26.06706 | -80.14253 | 11 ft | 9 kts | 292° |
| 2026-04-23 15:04 | 26.06709 | -80.14323 | 11 ft | 7 kts | 265° |
| 2026-04-23 15:04 | 26.06704 | -80.14401 | 11 ft | 12 kts | 265° |
| 2026-04-23 15:05 | 26.06695 | -80.14523 | 11 ft | 17 kts | 265° |
| 2026-04-23 15:05 | 26.06691 | -80.14624 | 11 ft | 14 kts | 269° |
| 2026-04-23 15:05 | 26.06694 | -80.14756 | 11 ft | 18 kts | 271° |
| 2026-04-23 15:05 | 26.06695 | -80.14893 | 11 ft | 11 kts | 269° |
| 2026-04-23 15:06 | 26.06694 | -80.15002 | 11 ft | 10 kts | 270° |
| 2026-04-23 15:06 | 26.06694 | -80.15073 | 11 ft | 11 kts | 270° |
| 2026-04-23 15:06 | 26.06737 | -80.15160 | 11 ft | 15 kts | 322° |
| 2026-04-23 15:06 | 26.06777 | -80.15221 | 11 ft | 6 kts | 280° |
| 2026-04-23 15:07 | 26.06775 | -80.15281 | 11 ft | 0 kts | 272° |
| 2026-04-23 15:07 | 26.06780 | -80.15306 | 11 ft | 4 kts | 295° |
| 2026-04-23 15:07 | 26.06812 | -80.15350 | 11 ft | 12 kts | 327° |
| 2026-04-23 15:07 | 26.06902 | -80.15377 | 11 ft | 15 kts | 324° |
| 2026-04-23 15:08 | 26.06931 | -80.15482 | 11 ft | 5 kts | 272° |
| 2026-04-23 15:08 | 26.06935 | -80.15524 | 11 ft | 0 kts | 290° |